Time;durP1;ratioP1;P1;durP2;ratioP2;P2;SDS_P1;SDS_P2;PMS_P1;PMS_P2;Temp;Humidity;BMP_temperature;BMP_pressure;BME280_temperature;BME280_humidity;BME280_pressure;Samples;Min_cycle;Max_cycle;Signal;HPM_P1;HPM_P2
2021/10/02 00:46:41;;;;;;;8.77;6.60;;;13.70;99.90;;;;;;6182932;23;20160;-72
2021/10/02 00:49:10;;;;;;;11.25;8.95;;;13.70;99.90;;;;;;6183917;23;20171;-71
2021/10/02 00:51:39;;;;;;;9.50;7.30;;;13.80;99.90;;;;;;6183357;23;20168;-70
2021/10/02 00:54:16;;;;;;;12.98;8.32;;;13.80;99.90;;;;;;5048477;28;20555;-71
2021/10/02 00:56:43;;;;;;;12.20;7.78;;;13.80;99.90;;;;;;5043646;28;20521;-70
2021/10/02 00:59:11;;;;;;;9.23;7.63;;;13.80;99.90;;;;;;5045599;28;20217;-71
2021/10/02 01:01:52;;;;;;;8.65;6.88;;;13.80;99.90;;;;;;5046667;28;20269;-71
2021/10/02 01:04:27;;;;;;;9.70;8.70;;;13.80;99.90;;;;;;5045393;28;20314;-70
2021/10/02 01:07:08;;;;;;;10.48;7.90;;;13.90;99.90;;;;;;5042591;28;20247;-70
2021/10/02 01:10:15;;;;;;;10.63;8.88;;;13.80;99.90;;;;;;5083125;28;20260;-69
2021/10/02 01:12:57;;;;;;;9.48;7.82;;;13.80;99.90;;;;;;5046708;28;20309;-69
2021/10/02 01:15:32;;;;;;;11.50;8.90;;;13.90;99.90;;;;;;5042822;28;20684;-68
2021/10/02 01:18:05;;;;;;;10.82;8.18;;;13.90;99.90;;;;;;5047573;28;20195;-70
2021/10/02 01:20:42;;;;;;;11.80;8.32;;;13.80;99.90;;;;;;5051399;28;20216;-70
2021/10/02 01:23:42;;;;;;;9.95;8.43;;;13.80;99.90;;;;;;5044230;28;20215;-69
2021/10/02 01:26:26;;;;;;;11.15;8.25;;;13.70;99.90;;;;;;5040497;28;20203;-70
2021/10/02 01:28:56;;;;;;;10.45;8.23;;;13.60;99.90;;;;;;5048504;28;20263;-69
2021/10/02 01:31:30;;;;;;;11.20;10.00;;;13.60;99.90;;;;;;5046650;28;20210;-69
2021/10/02 01:34:06;;;;;;;15.10;9.43;;;13.60;99.90;;;;;;5047570;28;20230;-70
2021/10/02 01:36:44;;;;;;;11.55;9.18;;;13.50;99.90;;;;;;5045691;28;20249;-71
2021/10/02 01:47:37;;;;;;;13.95;9.43;;;13.70;99.90;;;;;;5041948;28;20207;-69
2021/10/02 01:50:07;;;;;;;14.50;9.98;;;13.80;99.90;;;;;;5046213;28;20219;-69
2021/10/02 01:52:37;;;;;;;14.77;9.60;;;13.90;99.90;;;;;;5046551;28;20238;-69
2021/10/02 01:55:09;;;;;;;9.27;8.40;;;13.90;99.90;;;;;;5046927;28;20661;-70
2021/10/02 01:57:41;;;;;;;12.32;9.40;;;13.90;99.90;;;;;;5046917;28;20196;-67
2021/10/02 02:00:12;;;;;;;15.07;10.38;;;13.90;99.90;;;;;;5047664;28;20200;-71
2021/10/02 02:02:42;;;;;;;11.45;9.55;;;13.80;99.90;;;;;;5045966;28;20230;-69
2021/10/02 02:05:11;;;;;;;13.60;10.15;;;13.90;99.90;;;;;;5036114;28;20295;-68
2021/10/02 02:07:41;;;;;;;13.23;10.18;;;13.90;99.90;;;;;;5030278;28;20659;-69
2021/10/02 02:10:09;;;;;;;13.77;9.20;;;14.00;99.90;;;;;;5030807;28;20203;-68
2021/10/02 02:12:38;;;;;;;10.30;9.30;;;14.00;99.90;;;;;;5033844;28;20319;-68
2021/10/02 02:15:11;;;;;;;14.15;10.52;;;14.10;99.90;;;;;;5034038;28;20670;-69
2021/10/02 02:17:42;;;;;;;12.20;10.90;;;14.10;99.90;;;;;;5035055;28;20209;-70
2021/10/02 02:20:12;;;;;;;11.90;10.70;;;14.20;99.90;;;;;;5030135;28;20231;-68
2021/10/02 02:22:39;;;;;;;14.65;10.10;;;14.20;99.90;;;;;;5027003;28;20708;-68
2021/10/02 02:25:07;;;;;;;15.07;10.85;;;14.10;99.90;;;;;;5030359;28;20212;-72
2021/10/02 02:27:36;;;;;;;14.63;10.88;;;14.10;99.90;;;;;;5029801;28;20227;-70
2021/10/02 02:30:04;;;;;;;14.13;10.82;;;14.20;99.90;;;;;;5033420;28;20212;-70
2021/10/02 02:32:34;;;;;;;13.85;11.18;;;14.30;99.90;;;;;;5033504;28;20231;-71
2021/10/02 02:35:05;;;;;;;18.48;11.85;;;14.30;99.90;;;;;;5033546;28;20203;-69
2021/10/02 02:37:32;;;;;;;17.67;11.50;;;14.20;99.90;;;;;;5033806;28;20307;-71
2021/10/02 02:39:59;;;;;;;15.43;12.13;;;14.30;99.90;;;;;;5034046;28;20223;-69
2021/10/02 02:42:27;;;;;;;12.95;10.45;;;14.20;99.90;;;;;;5031086;28;20733;-70
2021/10/02 02:44:56;;;;;;;15.52;12.27;;;14.30;99.90;;;;;;5034068;28;20197;-69
2021/10/02 02:47:26;;;;;;;15.00;12.80;;;14.20;99.90;;;;;;5032312;28;20219;-69
2021/10/02 02:50:00;;;;;;;14.32;12.07;;;14.20;99.90;;;;;;5025745;28;20203;-71
2021/10/02 02:52:38;;;;;;;16.23;12.80;;;14.30;99.90;;;;;;5025710;28;20597;-70
2021/10/02 02:55:08;;;;;;;14.38;12.02;;;14.30;99.90;;;;;;5020267;28;20209;-69
2021/10/02 02:57:41;;;;;;;14.75;12.80;;;14.20;99.90;;;;;;5027212;28;20206;-68
2021/10/02 03:00:11;;;;;;;15.23;12.40;;;14.20;99.90;;;;;;5033824;28;20204;-68
2021/10/02 03:02:43;;;;;;;14.60;11.40;;;14.30;99.90;;;;;;5028773;28;20334;-70
2021/10/02 03:05:13;;;;;;;15.75;12.77;;;14.30;99.90;;;;;;5030631;28;20211;-69
2021/10/02 03:07:53;;;;;;;14.25;12.55;;;14.30;99.90;;;;;;5033484;28;20219;-69
2021/10/02 03:10:20;;;;;;;17.55;11.75;;;14.30;99.90;;;;;;5031105;28;20207;-70
2021/10/02 03:12:49;;;;;;;14.85;11.80;;;14.40;99.90;;;;;;5032456;28;20578;-71
2021/10/02 03:15:17;;;;;;;22.67;16.50;;;14.40;99.90;;;;;;5031302;28;20208;-69
2021/10/02 03:17:48;;;;;;;20.20;14.45;;;14.30;99.90;;;;;;5033044;28;20204;-69
2021/10/02 03:20:17;;;;;;;16.10;13.68;;;14.30;99.90;;;;;;5032374;28;20199;-71
2021/10/02 03:22:48;;;;;;;17.85;13.95;;;14.30;99.90;;;;;;5037980;28;20220;-68
2021/10/02 03:25:17;;;;;;;16.95;14.43;;;14.30;99.90;;;;;;5030750;28;20204;-70
2021/10/02 03:27:47;;;;;;;19.20;14.15;;;14.30;99.90;;;;;;5032907;28;20204;-69
2021/10/02 03:30:14;;;;;;;20.50;14.98;;;14.40;99.90;;;;;;5032159;28;20200;-68
2021/10/02 03:32:42;;;;;;;20.48;14.52;;;14.40;99.90;;;;;;5031386;28;20222;-68
2021/10/02 03:35:10;;;;;;;17.45;13.52;;;14.40;99.90;;;;;;5031510;28;20206;-70
2021/10/02 03:37:41;;;;;;;20.50;13.95;;;14.50;99.90;;;;;;5031674;28;20204;-70
2021/10/02 03:40:09;;;;;;;17.67;14.70;;;14.40;99.90;;;;;;5032230;28;20728;-68
2021/10/02 03:42:43;;;;;;;17.27;13.60;;;14.50;99.90;;;;;;5031215;28;20263;-68
2021/10/02 03:45:11;;;;;;;16.20;14.43;;;14.50;99.90;;;;;;5035401;28;20608;-69
2021/10/02 03:47:39;;;;;;;23.13;15.50;;;14.40;99.90;;;;;;5032028;28;20196;-69
2021/10/02 03:50:07;;;;;;;19.95;15.00;;;14.30;99.90;;;;;;5031974;28;20676;-69
2021/10/02 03:52:34;;;;;;;22.55;16.23;;;14.40;99.90;;;;;;5031309;28;20661;-68
2021/10/02 03:55:03;;;;;;;19.70;14.07;;;14.40;99.90;;;;;;5031664;28;20230;-66
2021/10/02 03:57:31;;;;;;;18.15;15.75;;;14.40;99.90;;;;;;5032492;28;20539;-68
2021/10/02 03:59:58;;;;;;;20.23;15.13;;;14.40;99.90;;;;;;5031265;28;20196;-69
2021/10/02 04:02:25;;;;;;;20.98;16.00;;;14.40;99.90;;;;;;5032478;28;20231;-66
2021/10/02 04:04:53;;;;;;;23.45;16.55;;;14.40;99.90;;;;;;5031112;28;20201;-68
2021/10/02 04:07:20;;;;;;;20.10;15.15;;;14.40;99.90;;;;;;5031551;28;20226;-70
2021/10/02 04:09:48;;;;;;;18.55;15.55;;;14.40;99.90;;;;;;5030735;28;20214;-71
2021/10/02 04:12:17;;;;;;;20.52;15.63;;;14.30;99.90;;;;;;5030093;28;21580;-70
2021/10/02 04:14:45;;;;;;;23.13;17.08;;;14.30;99.90;;;;;;5031971;28;20583;-71
2021/10/02 04:17:12;;;;;;;24.88;17.75;;;14.30;99.90;;;;;;5024742;28;20555;-70
2021/10/02 04:19:41;;;;;;;22.48;15.75;;;14.40;99.90;;;;;;5032786;28;20212;-71
2021/10/02 04:22:09;;;;;;;27.33;16.00;;;14.40;99.90;;;;;;5031406;28;20206;-71
2021/10/02 04:24:36;;;;;;;23.02;15.80;;;14.40;99.90;;;;;;5029915;28;20681;-72
2021/10/02 04:27:04;;;;;;;21.10;14.07;;;14.30;99.90;;;;;;5028727;28;20223;-70
2021/10/02 04:29:32;;;;;;;19.30;15.23;;;14.30;99.90;;;;;;5030359;28;20200;-69
2021/10/02 04:31:59;;;;;;;19.00;14.88;;;14.40;99.90;;;;;;5029387;28;20255;-69
2021/10/02 04:34:26;;;;;;;20.08;15.45;;;14.40;99.90;;;;;;5030570;28;20209;-69
2021/10/02 04:36:54;;;;;;;16.52;13.82;;;14.50;99.90;;;;;;5029600;28;20207;-69
2021/10/02 04:39:21;;;;;;;22.27;16.77;;;14.50;99.90;;;;;;5030005;28;20196;-70
2021/10/02 04:41:49;;;;;;;19.02;14.40;;;14.50;99.90;;;;;;5031596;28;20201;-69
2021/10/02 04:44:16;;;;;;;23.45;16.00;;;14.50;99.90;;;;;;5032144;28;20219;-70
2021/10/02 04:46:44;;;;;;;22.05;17.17;;;14.50;99.90;;;;;;5031681;28;20200;-70
2021/10/02 04:49:11;;;;;;;25.35;16.15;;;14.50;99.90;;;;;;5032162;28;20201;-68
2021/10/02 04:51:39;;;;;;;21.88;16.45;;;14.50;99.90;;;;;;5031845;28;20202;-70
2021/10/02 04:54:06;;;;;;;25.55;16.77;;;14.50;99.90;;;;;;5032002;28;20690;-70
2021/10/02 04:56:33;;;;;;;22.30;17.25;;;14.40;99.90;;;;;;5031216;28;20208;-68
2021/10/02 04:59:00;;;;;;;24.33;17.70;;;14.40;99.90;;;;;;5037815;28;20197;-70
2021/10/02 05:01:27;;;;;;;26.20;17.40;;;14.40;99.90;;;;;;5031441;28;20631;-68
2021/10/02 05:03:58;;;;;;;19.75;15.25;;;14.40;99.90;;;;;;5038300;28;20223;-69
2021/10/02 05:06:25;;;;;;;19.67;15.07;;;14.40;99.90;;;;;;5029159;28;20283;-69
2021/10/02 05:08:52;;;;;;;17.67;15.13;;;14.40;99.90;;;;;;5026611;28;20207;-70
2021/10/02 05:11:19;;;;;;;25.85;16.80;;;14.40;99.90;;;;;;5027744;28;20200;-70
2021/10/02 05:13:47;;;;;;;25.52;16.30;;;14.40;99.90;;;;;;5023931;28;20244;-70
2021/10/02 05:16:14;;;;;;;27.83;18.35;;;14.40;99.90;;;;;;5030452;28;20196;-67
2021/10/02 05:18:41;;;;;;;21.70;17.50;;;14.30;99.90;;;;;;5031502;28;20200;-68
2021/10/02 05:21:09;;;;;;;24.42;18.92;;;14.20;99.90;;;;;;5031415;28;20211;-68
2021/10/02 05:23:37;;;;;;;23.75;17.75;;;14.20;99.90;;;;;;5031208;28;20231;-69
2021/10/02 05:26:04;;;;;;;25.00;16.40;;;14.20;99.90;;;;;;5023222;28;20212;-69
2021/10/02 05:28:31;;;;;;;27.60;21.02;;;14.30;99.90;;;;;;5029171;28;20200;-71
2021/10/02 05:30:58;;;;;;;27.17;18.83;;;14.20;99.90;;;;;;5031677;28;20196;-71
2021/10/02 05:33:26;;;;;;;25.38;18.17;;;14.20;99.90;;;;;;5031811;28;20227;-70
2021/10/02 05:35:53;;;;;;;21.35;18.10;;;14.20;99.90;;;;;;5030605;28;20196;-70
2021/10/02 05:38:25;;;;;;;24.65;17.80;;;14.20;99.90;;;;;;5031931;28;20204;-70
2021/10/02 05:40:52;;;;;;;29.67;17.95;;;14.30;99.90;;;;;;5034115;28;20207;-69
2021/10/02 05:43:20;;;;;;;23.67;18.90;;;14.20;99.90;;;;;;5034999;28;20235;-71
2021/10/02 05:45:47;;;;;;;24.73;18.08;;;14.30;99.90;;;;;;5032835;28;20208;-71
2021/10/02 05:48:14;;;;;;;24.83;17.55;;;14.30;99.90;;;;;;5027179;28;20200;-70
2021/10/02 05:50:42;;;;;;;21.88;19.30;;;14.30;99.90;;;;;;5029227;28;20227;-73
2021/10/02 05:53:09;;;;;;;23.85;17.15;;;14.30;99.90;;;;;;5031004;28;20228;-72
2021/10/02 05:55:37;;;;;;;29.48;18.08;;;14.30;99.90;;;;;;5033171;28;20224;-75
2021/10/02 05:58:05;;;;;;;21.05;17.70;;;14.30;99.90;;;;;;5023528;28;20570;-67
2021/10/02 06:00:32;;;;;;;22.52;18.35;;;14.40;99.90;;;;;;5029148;28;20192;-67
2021/10/02 06:03:01;;;;;;;23.23;17.90;;;14.40;99.90;;;;;;5033382;28;20250;-68
2021/10/02 06:05:28;;;;;;;21.52;18.67;;;14.40;99.90;;;;;;5027944;28;20197;-68
2021/10/02 06:07:56;;;;;;;20.48;16.45;;;14.50;99.90;;;;;;5020885;28;20200;-68
2021/10/02 06:10:23;;;;;;;21.23;17.27;;;14.60;99.90;;;;;;5029505;28;20205;-68
2021/10/02 06:12:54;;;;;;;20.58;17.15;;;14.70;99.90;;;;;;5031744;28;20224;-67
2021/10/02 06:15:22;;;;;;;25.15;18.83;;;14.70;99.90;;;;;;5033925;28;20718;-67
2021/10/02 06:17:50;;;;;;;23.05;18.23;;;14.70;99.90;;;;;;5033777;28;20639;-66
2021/10/02 06:20:17;;;;;;;22.92;19.48;;;14.80;99.90;;;;;;5029701;28;20552;-66
2021/10/02 06:22:45;;;;;;;19.27;16.65;;;14.70;99.90;;;;;;5024344;28;20225;-66
2021/10/02 06:25:13;;;;;;;22.63;18.60;;;14.80;99.90;;;;;;5030518;28;20219;-67
2021/10/02 06:27:41;;;;;;;21.25;18.38;;;14.80;99.90;;;;;;5027348;28;20683;-68
2021/10/02 06:30:10;;;;;;;26.90;22.40;;;14.90;99.90;;;;;;5032787;28;20204;-67
2021/10/02 06:32:37;;;;;;;21.70;18.35;;;14.80;99.90;;;;;;5033836;28;20231;-68
2021/10/02 06:35:06;;;;;;;24.10;17.98;;;14.70;99.90;;;;;;5031405;28;20250;-69
2021/10/02 06:37:33;;;;;;;26.65;17.33;;;14.70;99.90;;;;;;5034111;28;20207;-69
2021/10/02 06:40:00;;;;;;;18.48;15.70;;;14.80;99.90;;;;;;5028433;28;20200;-68
2021/10/02 06:42:28;;;;;;;19.45;17.40;;;14.80;99.90;;;;;;5030698;28;20671;-68
2021/10/02 06:44:55;;;;;;;22.60;16.30;;;14.80;99.90;;;;;;5031920;28;20202;-69
2021/10/02 06:47:24;;;;;;;20.23;16.13;;;14.90;99.90;;;;;;5023707;28;20201;-69
2021/10/02 06:49:53;;;;;;;18.00;16.17;;;14.90;99.90;;;;;;5028822;28;20192;-70
2021/10/02 06:52:24;;;;;;;19.35;17.27;;;14.90;99.90;;;;;;5026640;28;20231;-68
2021/10/02 06:54:51;;;;;;;21.10;18.05;;;15.00;99.90;;;;;;5027216;28;20227;-69
2021/10/02 06:57:18;;;;;;;18.48;16.48;;;15.00;99.90;;;;;;5026364;28;20200;-70
2021/10/02 06:59:46;;;;;;;19.08;15.65;;;15.00;99.90;;;;;;5028940;28;20660;-68
2021/10/02 07:02:13;;;;;;;19.15;15.93;;;15.10;99.90;;;;;;5024812;28;20682;-70
2021/10/02 07:04:45;;;;;;;22.10;19.42;;;15.10;99.90;;;;;;5030799;28;20204;-68
2021/10/02 07:07:12;;;;;;;20.48;18.35;;;15.10;99.90;;;;;;5024230;28;20258;-69
2021/10/02 07:09:39;;;;;;;20.35;16.92;;;15.10;99.90;;;;;;5026380;28;20227;-69
2021/10/02 07:12:07;;;;;;;20.75;18.65;;;15.10;99.90;;;;;;5027512;28;20211;-67
2021/10/02 07:14:34;;;;;;;24.23;17.73;;;15.20;99.90;;;;;;5022357;28;20208;-70
2021/10/02 07:17:03;;;;;;;20.05;17.90;;;15.20;99.90;;;;;;5020345;28;20194;-69
2021/10/02 07:19:30;;;;;;;24.27;18.58;;;15.20;99.90;;;;;;5026338;28;20208;-68
2021/10/02 07:21:59;;;;;;;20.58;18.35;;;15.20;99.90;;;;;;5028756;28;20204;-70
2021/10/02 07:24:26;;;;;;;20.75;18.55;;;15.30;99.90;;;;;;5033396;28;20200;-69
2021/10/02 07:26:55;;;;;;;19.88;17.42;;;15.40;99.90;;;;;;5026962;28;20216;-70
2021/10/02 07:29:22;;;;;;;18.48;15.52;;;15.50;99.90;;;;;;5026490;28;20200;-71
2021/10/02 07:31:50;;;;;;;21.65;16.42;;;15.50;99.90;;;;;;5021400;28;20602;-70
2021/10/02 07:34:17;;;;;;;20.10;18.13;;;15.40;99.90;;;;;;5022839;28;20234;-68
2021/10/02 07:36:45;;;;;;;21.17;15.35;;;15.30;99.90;;;;;;5026501;28;20208;-69
2021/10/02 07:39:13;;;;;;;16.15;14.43;;;15.30;99.90;;;;;;5031944;28;20678;-70
2021/10/02 07:41:44;;;;;;;17.08;15.10;;;15.40;99.90;;;;;;5027967;28;20208;-70
2021/10/02 07:44:12;;;;;;;19.95;16.08;;;15.50;99.90;;;;;;5031723;28;20230;-70
2021/10/02 07:46:47;;;;;;;19.77;17.75;;;15.50;99.90;;;;;;5030039;28;20212;-70
2021/10/02 07:49:14;;;;;;;17.08;15.30;;;15.50;99.90;;;;;;5025318;28;20209;-71
2021/10/02 07:51:44;;;;;;;16.30;14.07;;;15.50;99.90;;;;;;5029463;28;20214;-71
2021/10/02 07:54:11;;;;;;;17.65;15.75;;;15.50;99.90;;;;;;5027253;28;20235;-72
2021/10/02 07:56:47;;;;;;;20.40;18.20;;;15.50;99.90;;;;;;5035676;28;20560;-70
2021/10/02 07:59:15;;;;;;;19.13;14.88;;;15.40;99.90;;;;;;5028171;28;20660;-69
2021/10/02 08:01:44;;;;;;;18.90;16.88;;;15.50;99.90;;;;;;5027817;28;20212;-69
2021/10/02 08:04:11;;;;;;;20.92;16.17;;;15.50;99.90;;;;;;5039246;28;20225;-71
2021/10/02 08:06:39;;;;;;;26.00;15.25;;;15.60;99.90;;;;;;5030523;28;20202;-70
2021/10/02 08:09:07;;;;;;;17.33;15.30;;;15.70;99.90;;;;;;5018669;28;20206;-69
2021/10/02 08:11:40;;;;;;;16.67;15.00;;;15.80;99.90;;;;;;5018004;28;20230;-71
2021/10/02 08:14:09;;;;;;;19.10;14.60;;;15.70;99.90;;;;;;5023442;28;20695;-72
2021/10/02 08:16:38;;;;;;;21.48;17.95;;;15.70;99.90;;;;;;5035592;28;20245;-71
2021/10/02 08:19:08;;;;;;;19.33;15.80;;;15.70;99.90;;;;;;5032124;28;20196;-71
2021/10/02 08:21:38;;;;;;;20.05;16.23;;;15.80;99.90;;;;;;5026201;28;20206;-70
2021/10/02 08:24:06;;;;;;;16.40;14.63;;;15.80;99.90;;;;;;5030544;28;20251;-70
2021/10/02 08:26:34;;;;;;;15.75;14.07;;;15.90;99.90;;;;;;5026910;28;20287;-71
2021/10/02 08:29:02;;;;;;;14.77;13.27;;;16.00;99.90;;;;;;5026348;28;20210;-68
2021/10/02 08:31:33;;;;;;;17.55;15.82;;;16.20;99.90;;;;;;5024487;28;20207;-70
2021/10/02 08:34:00;;;;;;;16.10;13.05;;;16.20;99.90;;;;;;5022651;28;20237;-68
2021/10/02 08:36:27;;;;;;;19.23;15.35;;;16.30;99.90;;;;;;5023273;28;20215;-68
2021/10/02 08:38:55;;;;;;;17.90;15.82;;;16.40;99.90;;;;;;5022844;28;20199;-70
2021/10/02 08:41:25;;;;;;;16.50;14.00;;;16.40;99.90;;;;;;5030535;28;20248;-69
2021/10/02 08:43:53;;;;;;;19.20;14.10;;;16.40;99.90;;;;;;5025046;28;20227;-69
2021/10/02 08:46:21;;;;;;;15.10;13.50;;;16.40;99.90;;;;;;5028554;28;20524;-70
2021/10/02 08:49:09;;;;;;;14.95;13.25;;;16.50;99.90;;;;;;5025600;28;20447;-67
2021/10/02 08:51:38;;;;;;;13.93;12.63;;;16.60;99.90;;;;;;5024672;28;20200;-68
2021/10/02 08:54:05;;;;;;;16.23;12.63;;;17.00;99.90;;;;;;5021871;28;20585;-67
2021/10/02 08:56:32;;;;;;;12.60;11.30;;;17.20;99.90;;;;;;5025804;28;20482;-68
2021/10/02 08:59:00;;;;;;;12.80;11.50;;;17.50;99.90;;;;;;5024870;28;20446;-67
2021/10/02 09:01:28;;;;;;;13.50;11.97;;;17.70;99.90;;;;;;5026328;28;20811;-69
2021/10/02 09:03:56;;;;;;;16.30;14.10;;;17.70;99.90;;;;;;5026655;28;20526;-71
2021/10/02 09:06:23;;;;;;;14.63;13.13;;;17.80;99.90;;;;;;5026429;28;20447;-73
2021/10/02 09:08:51;;;;;;;15.67;14.20;;;17.90;99.90;;;;;;5021359;28;20444;-72
2021/10/02 09:11:21;;;;;;;18.73;13.83;;;18.10;99.90;;;;;;5019961;28;20462;-77
2021/10/02 09:13:48;;;;;;;15.90;13.47;;;18.30;99.90;;;;;;5024527;28;20474;-76
2021/10/02 09:16:16;;;;;;;13.30;11.90;;;18.70;99.90;;;;;;5020236;28;20921;-71
2021/10/02 09:18:43;;;;;;;12.33;11.07;;;19.10;99.90;;;;;;5029053;28;20454;-72
2021/10/02 09:21:12;;;;;;;13.43;12.10;;;19.20;99.90;;;;;;5032139;28;20449;-75
2021/10/02 09:23:44;;;;;;;11.53;10.33;;;19.60;99.90;;;;;;5028561;28;20459;-74
2021/10/02 09:26:11;;;;;;;13.77;11.20;;;19.50;99.90;;;;;;5027227;28;20435;-75
2021/10/02 09:28:44;;;;;;;16.83;11.97;;;19.40;99.90;;;;;;5030300;28;20443;-73
2021/10/02 09:31:11;;;;;;;14.03;12.10;;;19.40;99.90;;;;;;5034367;28;20474;-75
2021/10/02 09:33:45;;;;;;;11.10;9.90;;;19.10;99.90;;;;;;5035026;28;20470;-73
2021/10/02 09:36:22;;;;;;;12.90;11.70;;;18.90;99.90;;;;;;5033430;28;20528;-73
2021/10/02 09:38:51;;;;;;;12.13;10.97;;;18.80;99.90;;;;;;5026288;28;20451;-78
2021/10/02 09:41:19;;;;;;;13.20;11.90;;;18.70;99.90;;;;;;5034447;28;20478;-76
2021/10/02 09:43:48;;;;;;;18.90;12.27;;;18.60;99.90;;;;;;5032617;28;20471;-77
2021/10/02 09:46:15;;;;;;;15.20;11.87;;;18.40;99.90;;;;;;5034131;28;20440;-74
2021/10/02 09:48:53;;;;;;;14.40;11.67;;;18.00;99.90;;;;;;5038757;28;20445;-72
2021/10/02 09:51:22;;;;;;;13.40;12.03;;;17.90;99.90;;;;;;5030848;28;20442;-73
2021/10/02 09:53:49;;;;;;;15.73;12.60;;;17.80;99.90;;;;;;5034528;28;20467;-72
2021/10/02 09:56:20;;;;;;;13.57;12.20;;;17.90;99.90;;;;;;5027724;28;20506;-72
2021/10/02 09:58:50;;;;;;;17.30;13.37;;;18.00;99.90;;;;;;5028422;28;20436;-73
2021/10/02 10:01:24;;;;;;;17.43;14.60;;;18.00;99.90;;;;;;5034033;28;20477;-74
2021/10/02 10:03:52;;;;;;;14.70;13.30;;;18.00;99.90;;;;;;5033541;28;20458;-75
2021/10/02 10:06:22;;;;;;;20.20;15.00;;;18.00;99.90;;;;;;5028123;28;20814;-72
2021/10/02 10:09:06;;;;;;;15.30;12.90;;;18.10;99.90;;;;;;5024781;28;20453;-71
2021/10/02 10:11:45;;;;;;;16.33;12.47;;;18.10;99.90;;;;;;5027719;28;20470;-72
2021/10/02 10:14:19;;;;;;;17.40;14.63;;;18.50;99.90;;;;;;5026960;28;20458;-71
2021/10/02 10:16:47;;;;;;;17.93;13.70;;;18.70;99.90;;;;;;5026557;28;20478;-69
2021/10/02 10:19:19;;;;;;;17.00;15.30;;;18.60;99.90;;;;;;5035285;28;20951;-70
2021/10/02 10:22:07;;;;;;;15.40;12.60;;;18.50;99.90;;;;;;5032909;28;20510;-72
2021/10/02 10:24:35;;;;;;;15.00;13.53;;;18.60;99.90;;;;;;5029296;28;20514;-72
2021/10/02 10:27:03;;;;;;;16.63;14.90;;;18.40;99.90;;;;;;5030908;28;20435;-71
2021/10/02 10:29:39;;;;;;;16.73;14.50;;;18.30;99.90;;;;;;5025810;28;20968;-70
2021/10/02 10:32:08;;;;;;;14.70;12.90;;;18.60;99.90;;;;;;5028694;28;20449;-72
2021/10/02 10:34:38;;;;;;;13.93;12.27;;;18.80;99.90;;;;;;5026248;28;20451;-70
2021/10/02 10:37:10;;;;;;;14.17;12.67;;;18.80;99.90;;;;;;5032353;28;21027;-71
2021/10/02 10:39:38;;;;;;;14.10;12.80;;;18.80;99.90;;;;;;5027690;28;20447;-71
2021/10/02 10:42:07;;;;;;;15.10;13.40;;;19.30;99.90;;;;;;5032399;28;20545;-71
2021/10/02 10:44:35;;;;;;;13.00;10.87;;;19.90;99.90;;;;;;5030871;28;20467;-71
2021/10/02 10:47:03;;;;;;;15.53;13.00;;;20.10;99.90;;;;;;5029300;28;20445;-71
2021/10/02 10:49:30;;;;;;;16.63;12.47;;;20.10;99.90;;;;;;5031156;28;20447;-71
2021/10/02 10:52:02;;;;;;;13.27;11.93;;;20.10;99.90;;;;;;5032153;28;20455;-71
2021/10/02 10:54:32;;;;;;;14.17;11.40;;;19.90;99.90;;;;;;5032892;28;20483;-71
2021/10/02 10:56:59;;;;;;;14.73;11.70;;;19.80;99.90;;;;;;5031239;28;20814;-71
2021/10/02 10:59:27;;;;;;;12.90;11.60;;;20.00;99.90;;;;;;5033525;28;20789;-71
2021/10/02 11:01:55;;;;;;;13.47;11.97;;;19.80;99.90;;;;;;5030930;28;20814;-71
2021/10/02 11:04:37;;;;;;;12.40;11.03;;;19.70;99.90;;;;;;5029891;28;20437;-71
2021/10/02 11:07:05;;;;;;;10.50;9.40;;;19.70;99.90;;;;;;5030350;28;20518;-71
2021/10/02 11:09:39;;;;;;;10.40;9.40;;;19.70;99.90;;;;;;5031802;28;20442;-72
2021/10/02 11:12:08;;;;;;;13.80;12.50;;;19.80;99.90;;;;;;5030231;28;20482;-71
2021/10/02 11:15:02;;;;;;;10.80;9.73;;;19.90;99.90;;;;;;5035210;28;20434;-69
2021/10/02 11:17:45;;;;;;;13.03;9.50;;;20.00;99.90;;;;;;5027247;28;20448;-70
2021/10/02 11:20:40;;;;;;;11.40;8.87;;;19.80;99.90;;;;;;5032014;28;20450;-70
2021/10/02 11:23:43;;;;;;;14.53;9.50;;;19.70;99.90;;;;;;5019049;28;20471;-71
2021/10/02 11:26:18;;;;;;;10.27;9.27;;;19.80;99.90;;;;;;5032210;28;20423;-70
2021/10/02 11:28:49;;;;;;;9.67;7.67;;;20.20;99.90;;;;;;5031969;28;20519;-71
2021/10/02 11:31:19;;;;;;;9.30;8.30;;;20.30;99.90;;;;;;5032819;28;21009;-71
2021/10/02 11:33:48;;;;;;;8.53;7.50;;;20.30;99.90;;;;;;5037039;28;20478;-70
2021/10/02 11:36:47;;;;;;;8.97;8.07;;;20.10;99.90;;;;;;5028157;28;20483;-72
2021/10/02 11:39:21;;;;;;;13.57;8.90;;;19.80;99.90;;;;;;5030300;28;20536;-72
2021/10/02 11:41:51;;;;;;;9.97;8.17;;;19.80;99.90;;;;;;5032543;28;20438;-73
2021/10/02 11:44:36;;;;;;;9.97;8.97;;;19.40;99.90;;;;;;5032316;28;20847;-72
2021/10/02 11:47:32;;;;;;;10.77;9.00;;;19.30;99.90;;;;;;5028434;28;20451;-71
2021/10/02 11:50:29;;;;;;;13.53;8.30;;;19.10;99.90;;;;;;5031236;28;20447;-72
2021/10/02 11:53:17;;;;;;;10.57;9.40;;;19.10;99.90;;;;;;5031356;28;20561;-70
2021/10/02 11:55:51;;;;;;;10.53;9.10;;;19.00;99.90;;;;;;5031104;28;20578;-71
2021/10/02 11:58:21;;;;;;;9.43;8.43;;;19.00;99.90;;;;;;5025320;28;20486;-70
2021/10/02 12:00:51;;;;;;;11.40;8.37;;;19.00;99.90;;;;;;5032059;28;20971;-73
2021/10/02 12:03:20;;;;;;;10.03;8.10;;;19.10;99.90;;;;;;5032558;28;20562;-71
2021/10/02 12:05:49;;;;;;;12.60;8.37;;;18.90;99.90;;;;;;5031353;28;20435;-69
2021/10/02 12:08:17;;;;;;;9.53;8.63;;;19.00;99.90;;;;;;5024825;28;20443;-72
2021/10/02 12:10:59;;;;;;;8.90;7.40;;;19.10;99.90;;;;;;5031872;28;20937;-71
2021/10/02 12:13:29;;;;;;;8.80;7.37;;;19.10;99.90;;;;;;5031776;28;20475;-71
2021/10/02 12:16:01;;;;;;;7.03;6.10;;;19.30;99.90;;;;;;5031392;28;20482;-71
2021/10/02 12:18:44;;;;;;;6.67;5.63;;;19.80;99.90;;;;;;5031671;28;20454;-73
2021/10/02 12:21:13;;;;;;;9.77;6.73;;;19.70;99.90;;;;;;5032202;28;20454;-72
2021/10/02 12:23:56;;;;;;;6.67;5.93;;;19.70;99.90;;;;;;5029661;28;20620;-70
2021/10/02 12:26:25;;;;;;;7.70;6.60;;;19.70;99.90;;;;;;5020639;28;20475;-69
2021/10/02 12:29:00;;;;;;;8.30;5.67;;;19.70;99.90;;;;;;5018245;28;20866;-71
2021/10/02 12:31:43;;;;;;;6.47;5.80;;;19.60;99.90;;;;;;5017690;28;20494;-69
2021/10/02 12:34:16;;;;;;;10.47;5.80;;;19.80;99.90;;;;;;5024906;28;20485;-70
2021/10/02 12:36:45;;;;;;;5.53;4.93;;;20.00;99.90;;;;;;5031436;28;20468;-73
2021/10/02 12:39:12;;;;;;;5.87;4.73;;;20.20;99.90;;;;;;5027647;28;20451;-72
2021/10/02 12:41:42;;;;;;;6.13;5.53;;;20.10;99.90;;;;;;5035234;28;20944;-73
2021/10/02 12:44:22;;;;;;;6.47;5.10;;;19.90;99.90;;;;;;5030909;28;20997;-72
2021/10/02 12:46:50;;;;;;;5.27;4.50;;;19.70;99.90;;;;;;5030883;28;20449;-70
2021/10/02 12:49:18;;;;;;;6.43;4.97;;;19.80;99.90;;;;;;5026548;28;20439;-72
2021/10/02 12:51:46;;;;;;;7.50;5.60;;;19.50;99.90;;;;;;5031909;28;20447;-70
2021/10/02 12:54:16;;;;;;;7.33;5.50;;;19.50;99.90;;;;;;5030039;28;20475;-69
2021/10/02 12:57:05;;;;;;;9.90;4.90;;;19.40;99.90;;;;;;5030527;28;20511;-73
2021/10/02 12:59:39;;;;;;;5.80;4.90;;;19.50;99.90;;;;;;5025479;28;20941;-68
2021/10/02 13:02:07;;;;;;;4.87;4.40;;;19.50;99.90;;;;;;5030952;28;20443;-69
2021/10/02 13:04:35;;;;;;;5.20;4.23;;;19.30;99.90;;;;;;5030636;28;20462;-71
2021/10/02 13:07:03;;;;;;;4.90;4.10;;;19.30;99.90;;;;;;5028869;28;20444;-68
2021/10/02 13:09:31;;;;;;;4.77;3.90;;;19.10;99.90;;;;;;5030638;28;20443;-70
2021/10/02 13:12:07;;;;;;;4.43;4.00;;;19.20;99.90;;;;;;5026047;28;20443;-72
2021/10/02 13:14:37;;;;;;;6.27;4.63;;;19.20;99.90;;;;;;5027186;28;20744;-71
2021/10/02 13:17:09;;;;;;;5.20;4.70;;;19.50;99.90;;;;;;5029752;28;20536;-71
2021/10/02 13:19:38;;;;;;;6.50;4.10;;;19.50;99.90;;;;;;5031687;28;20554;-74
2021/10/02 13:22:13;;;;;;;7.60;4.30;;;19.60;99.90;;;;;;5033338;28;20941;-74
2021/10/02 13:25:02;;;;;;;4.93;3.87;;;19.50;99.90;;;;;;5043893;28;20445;-74
2021/10/02 13:27:35;;;;;;;5.27;3.17;;;19.50;99.90;;;;;;5029947;28;20595;-74
2021/10/02 13:30:07;;;;;;;5.53;3.20;;;19.50;99.90;;;;;;5031842;28;20451;-72
2021/10/02 13:32:34;;;;;;;5.07;3.10;;;19.10;99.90;;;;;;5030353;28;20533;-73
2021/10/02 13:35:11;;;;;;;4.73;3.33;;;18.90;99.90;;;;;;5030539;28;20454;-71
2021/10/02 13:37:47;;;;;;;5.40;3.23;;;18.80;99.90;;;;;;5029447;28;20482;-71
2021/10/02 13:40:23;;;;;;;7.13;4.10;;;18.70;99.90;;;;;;5023215;28;20435;-69
2021/10/02 13:42:51;;;;;;;3.67;3.07;;;18.60;99.90;;;;;;5028125;28;20466;-72